sensor_id;sensor_type;location;lat;lon;timestamp;pressure;altitude;pressure_sealevel;temperature;humidity
53868;BME280;41577;47.470;19.080;2023-05-20T00:00:05;100606.09;;;15.54;100.00
53868;BME280;41577;47.470;19.080;2023-05-20T00:00:17;100605.50;;;15.52;100.00
53868;BME280;41577;47.470;19.080;2023-05-20T00:00:29;100597.41;;;15.52;100.00
53868;BME280;41577;47.470;19.080;2023-05-20T00:00:41;100596.59;;;15.52;100.00
53868;BME280;41577;47.470;19.080;2023-05-20T00:00:55;100598.22;;;15.53;100.00
53868;BME280;41577;47.470;19.080;2023-05-20T00:01:07;100596.59;;;15.52;100.00
53868;BME280;41577;47.470;19.080;2023-05-20T00:01:18;100597.63;;;15.51;100.00
53868;BME280;41577;47.470;19.080;2023-05-20T00:01:30;100607.38;;;15.52;100.00
53868;BME280;41577;47.470;19.080;2023-05-20T00:01:42;100601.16;;;15.51;100.00
53868;BME280;41577;47.470;19.080;2023-05-20T00:01:54;100601.97;;;15.52;100.00
53868;BME280;41577;47.470;19.080;2023-05-20T00:02:06;100600.31;;;15.51;100.00
53868;BME280;41577;47.470;19.080;2023-05-20T00:02:17;100600.53;;;15.49;100.00
53868;BME280;41577;47.470;19.080;2023-05-20T00:02:29;100598.06;;;15.47;100.00
53868;BME280;41577;47.470;19.080;2023-05-20T00:02:41;100601.38;;;15.50;100.00
53868;BME280;41577;47.470;19.080;2023-05-20T00:02:53;100602.38;;;15.48;100.00
53868;BME280;41577;47.470;19.080;2023-05-20T00:03:05;100593.50;;;15.48;100.00
53868;BME280;41577;47.470;19.080;2023-05-20T00:03:17;100592.66;;;15.47;100.00
53868;BME280;41577;47.470;19.080;2023-05-20T00:03:28;100591.03;;;15.46;100.00
53868;BME280;41577;47.470;19.080;2023-05-20T00:03:40;100594.53;;;15.47;100.00
53868;BME280;41577;47.470;19.080;2023-05-20T00:03:53;100593.94;;;15.45;100.00
53868;BME280;41577;47.470;19.080;2023-05-20T00:04:05;100596.63;;;15.45;100.00
53868;BME280;41577;47.470;19.080;2023-05-20T00:04:17;100599.09;;;15.46;100.00
53868;BME280;41577;47.470;19.080;2023-05-20T00:04:29;100596.63;;;15.45;100.00
53868;BME280;41577;47.470;19.080;2023-05-20T00:04:41;100594.75;;;15.45;100.00
53868;BME280;41577;47.470;19.080;2023-05-20T00:04:53;100596.63;;;15.45;100.00
53868;BME280;41577;47.470;19.080;2023-05-20T00:05:05;100599.31;;;15.45;100.00
53868;BME280;41577;47.470;19.080;2023-05-20T00:05:17;100587.72;;;15.44;100.00
53868;BME280;41577;47.470;19.080;2023-05-20T00:05:29;100598.50;;;15.44;100.00
53868;BME280;41577;47.470;19.080;2023-05-20T00:05:41;100595.19;;;15.42;100.00
53868;BME280;41577;47.470;19.080;2023-05-20T00:05:53;100601.19;;;15.44;100.00
53868;BME280;41577;47.470;19.080;2023-05-20T00:06:05;100593.31;;;15.43;100.00
53868;BME280;41577;47.470;19.080;2023-05-20T00:06:17;100596.22;;;15.41;100.00
53868;BME280;41577;47.470;19.080;2023-05-20T00:06:29;100597.66;;;15.44;100.00
53868;BME280;41577;47.470;19.080;2023-05-20T00:06:40;100597.88;;;15.42;100.00
53868;BME280;41577;47.470;19.080;2023-05-20T00:06:52;100600.56;;;15.42;100.00
53868;BME280;41577;47.470;19.080;2023-05-20T00:07:04;100596.22;;;15.41;100.00
53868;BME280;41577;47.470;19.080;2023-05-20T00:07:16;100594.38;;;15.42;100.00
53868;BME280;41577;47.470;19.080;2023-05-20T00:07:28;100598.69;;;15.43;100.00
53868;BME280;41577;47.470;19.080;2023-05-20T00:07:39;100605.13;;;15.42;100.00
53868;BME280;41577;47.470;19.080;2023-05-20T00:07:53;100596.22;;;15.41;100.00
53868;BME280;41577;47.470;19.080;2023-05-20T00:08:04;100607.81;;;15.42;100.00
53868;BME280;41577;47.470;19.080;2023-05-20T00:08:17;100599.75;;;15.42;100.00
53868;BME280;41577;47.470;19.080;2023-05-20T00:08:29;100606.97;;;15.41;100.00
53868;BME280;41577;47.470;19.080;2023-05-20T00:08:41;100601.81;;;15.40;100.00
53868;BME280;41577;47.470;19.080;2023-05-20T00:08:52;100603.66;;;15.39;100.00
53868;BME280;41577;47.470;19.080;2023-05-20T00:09:04;100599.34;;;15.38;100.00
53868;BME280;41577;47.470;19.080;2023-05-20T00:09:16;100594.78;;;15.39;100.00
53868;BME280;41577;47.470;19.080;2023-05-20T00:09:28;100600.38;;;15.37;100.00
53868;BME280;41577;47.470;19.080;2023-05-20T00:09:39;100594.78;;;15.39;100.00
53868;BME280;41577;47.470;19.080;2023-05-20T00:09:51;100597.47;;;15.39;100.00
53868;BME280;41577;47.470;19.080;2023-05-20T00:10:03;100604.31;;;15.35;100.00
53868;BME280;41577;47.470;19.080;2023-05-20T00:10:15;100603.28;;;15.36;100.00
53868;BME280;41577;47.470;19.080;2023-05-20T00:10:27;100598.72;;;15.36;100.00
53868;BME280;41577;47.470;19.080;2023-05-20T00:10:39;100604.31;;;15.35;100.00
53868;BME280;41577;47.470;19.080;2023-05-20T00:10:51;100597.06;;;15.35;100.00
53868;BME280;41577;47.470;19.080;2023-05-20T00:11:02;100600.78;;;15.34;100.00
53868;BME280;41577;47.470;19.080;2023-05-20T00:11:14;100599.78;;;15.35;100.00
53868;BME280;41577;47.470;19.080;2023-05-20T00:11:26;100599.78;;;15.35;100.00
53868;BME280;41577;47.470;19.080;2023-05-20T00:11:38;100599.78;;;15.35;100.00
53868;BME280;41577;47.470;19.080;2023-05-20T00:11:50;100599.16;;;15.33;100.00
53868;BME280;41577;47.470;19.080;2023-05-20T00:12:01;100598.91;;;15.35;100.00
53868;BME280;41577;47.470;19.080;2023-05-20T00:12:13;100593.78;;;15.33;100.00
53868;BME280;41577;47.470;19.080;2023-05-20T00:12:25;100593.97;;;15.32;100.00
53868;BME280;41577;47.470;19.080;2023-05-20T00:12:37;100602.66;;;15.34;100.00
53868;BME280;41577;47.470;19.080;2023-05-20T00:12:49;100592.09;;;15.32;100.00
53868;BME280;41577;47.470;19.080;2023-05-20T00:13:00;100591.28;;;15.32;100.00
53868;BME280;41577;47.470;19.080;2023-05-20T00:13:12;100595.66;;;15.33;100.00
53868;BME280;41577;47.470;19.080;2023-05-20T00:13:24;100595.84;;;15.31;100.00
53868;BME280;41577;47.470;19.080;2023-05-20T00:13:36;100593.16;;;15.31;100.00
53868;BME280;41577;47.470;19.080;2023-05-20T00:13:47;100594.19;;;15.30;100.00
53868;BME280;41577;47.470;19.080;2023-05-20T00:13:59;100595.84;;;15.31;100.00
53868;BME280;41577;47.470;19.080;2023-05-20T00:14:11;100599.34;;;15.32;100.00
53868;BME280;41577;47.470;19.080;2023-05-20T00:14:23;100601.22;;;15.31;100.00
53868;BME280;41577;47.470;19.080;2023-05-20T00:14:35;100598.75;;;15.30;100.00
53868;BME280;41577;47.470;19.080;2023-05-20T00:14:47;100595.84;;;15.31;100.00
53868;BME280;41577;47.470;19.080;2023-05-20T00:14:59;100595.22;;;15.29;100.00
53868;BME280;41577;47.470;19.080;2023-05-20T00:15:10;100596.03;;;15.30;100.00
53868;BME280;41577;47.470;19.080;2023-05-20T00:15:22;100592.75;;;15.27;100.00
53868;BME280;41577;47.470;19.080;2023-05-20T00:15:34;100599.78;;;15.29;100.00
53868;BME280;41577;47.470;19.080;2023-05-20T00:15:46;100586.75;;;15.25;100.00
53868;BME280;41577;47.470;19.080;2023-05-20T00:15:58;100591.72;;;15.29;100.00
53868;BME280;41577;47.470;19.080;2023-05-20T00:16:10;100592.75;;;15.27;100.00
53868;BME280;41577;47.470;19.080;2023-05-20T00:16:22;100593.78;;;15.26;100.00
53868;BME280;41577;47.470;19.080;2023-05-20T00:16:33;100592.97;;;15.26;100.00
53868;BME280;41577;47.470;19.080;2023-05-20T00:16:45;100595.66;;;15.26;100.00
53868;BME280;41577;47.470;19.080;2023-05-20T00:16:57;100590.47;;;15.24;100.00
53868;BME280;41577;47.470;19.080;2023-05-20T00:17:09;100584.06;;;15.25;100.00
53868;BME280;41577;47.470;19.080;2023-05-20T00:17:21;100592.34;;;15.24;100.00
53868;BME280;41577;47.470;19.080;2023-05-20T00:17:32;100589.66;;;15.24;100.00
53868;BME280;41577;47.470;19.080;2023-05-20T00:17:44;100587.78;;;15.24;100.00
53868;BME280;41577;47.470;19.080;2023-05-20T00:17:56;100590.69;;;15.23;100.00
53868;BME280;41577;47.470;19.080;2023-05-20T00:18:08;100588.81;;;15.23;100.00
53868;BME280;41577;47.470;19.080;2023-05-20T00:18:20;100596.31;;;15.21;100.00
53868;BME280;41577;47.470;19.080;2023-05-20T00:18:32;100598.75;;;15.23;100.00
53868;BME280;41577;47.470;19.080;2023-05-20T00:18:43;100580.97;;;15.22;100.00
53868;BME280;41577;47.470;19.080;2023-05-20T00:18:55;100587.19;;;15.22;100.00
53868;BME280;41577;47.470;19.080;2023-05-20T00:19:07;100582.84;;;15.21;100.00
53868;BME280;41577;47.470;19.080;2023-05-20T00:19:19;100586.56;;;15.20;100.00
53868;BME280;41577;47.470;19.080;2023-05-20T00:19:31;100584.69;;;15.21;100.00
53868;BME280;41577;47.470;19.080;2023-05-20T00:19:42;100584.06;;;15.19;100.00
53868;BME280;41577;47.470;19.080;2023-05-20T00:19:54;100586.75;;;15.19;100.00
53868;BME280;41577;47.470;19.080;2023-05-20T00:20:07;100589.25;;;15.20;100.00
53868;BME280;41577;47.470;19.080;2023-05-20T00:20:18;100583.88;;;15.20;100.00
53868;BME280;41577;47.470;19.080;2023-05-20T00:20:31;100588.44;;;15.20;100.00
53868;BME280;41577;47.470;19.080;2023-05-20T00:20:43;100586.75;;;15.19;100.00
53868;BME280;41577;47.470;19.080;2023-05-20T00:20:55;100588.44;;;15.20;100.00
53868;BME280;41577;47.470;19.080;2023-05-20T00:21:07;100584.91;;;15.19;100.00
53868;BME280;41577;47.470;19.080;2023-05-20T00:21:18;100581.38;;;15.19;100.00
53868;BME280;41577;47.470;19.080;2023-05-20T00:21:30;100583.25;;;15.18;100.00
53868;BME280;41577;47.470;19.080;2023-05-20T00:21:42;100576.00;;;15.19;100.00
53868;BME280;41577;47.470;19.080;2023-05-20T00:21:54;100585.75;;;15.20;100.00
53868;BME280;41577;47.470;19.080;2023-05-20T00:22:06;100586.56;;;15.20;100.00
53868;BME280;41577;47.470;19.080;2023-05-20T00:22:17;100582.22;;;15.19;100.00
53868;BME280;41577;47.470;19.080;2023-05-20T00:22:29;100587.59;;;15.19;100.00
53868;BME280;41577;47.470;19.080;2023-05-20T00:22:41;100587.59;;;15.19;100.00
53868;BME280;41577;47.470;19.080;2023-05-20T00:22:54;100583.25;;;15.18;100.00
53868;BME280;41577;47.470;19.080;2023-05-20T00:23:06;100585.13;;;15.18;100.00
53868;BME280;41577;47.470;19.080;2023-05-20T00:23:18;100584.06;;;15.19;100.00
53868;BME280;41577;47.470;19.080;2023-05-20T00:23:29;100580.34;;;15.20;100.00
53868;BME280;41577;47.470;19.080;2023-05-20T00:23:41;100587.59;;;15.19;100.00
53868;BME280;41577;47.470;19.080;2023-05-20T00:23:53;100580.34;;;15.20;100.00
53868;BME280;41577;47.470;19.080;2023-05-20T00:24:05;100581.59;;;15.17;100.00
53868;BME280;41577;47.470;19.080;2023-05-20T00:24:17;100586.56;;;15.20;100.00
53868;BME280;41577;47.470;19.080;2023-05-20T00:24:29;100583.06;;;15.20;100.00
53868;BME280;41577;47.470;19.080;2023-05-20T00:24:40;100583.88;;;15.20;100.00
53868;BME280;41577;47.470;19.080;2023-05-20T00:24:52;100581.19;;;15.20;100.00
53868;BME280;41577;47.470;19.080;2023-05-20T00:25:04;100576.84;;;15.19;100.00
53868;BME280;41577;47.470;19.080;2023-05-20T00:25:16;100576.84;;;15.19;100.00
53868;BME280;41577;47.470;19.080;2023-05-20T00:25:28;100585.75;;;15.20;100.00
53868;BME280;41577;47.470;19.080;2023-05-20T00:25:39;100576.84;;;15.19;100.00
53868;BME280;41577;47.470;19.080;2023-05-20T00:25:51;100576.00;;;15.19;100.00
53868;BME280;41577;47.470;19.080;2023-05-20T00:26:03;100573.31;;;15.19;100.00
53868;BME280;41577;47.470;19.080;2023-05-20T00:26:15;100582.22;;;15.19;100.00
53868;BME280;41577;47.470;19.080;2023-05-20T00:26:30;100572.50;;;15.18;100.00
53868;BME280;41577;47.470;19.080;2023-05-20T00:26:42;100579.53;;;15.19;100.00
53868;BME280;41577;47.470;19.080;2023-05-20T00:26:54;100581.38;;;15.19;100.00
53868;BME280;41577;47.470;19.080;2023-05-20T00:27:06;100579.75;;;15.18;100.00
53868;BME280;41577;47.470;19.080;2023-05-20T00:27:17;100573.31;;;15.19;100.00
53868;BME280;41577;47.470;19.080;2023-05-20T00:27:29;100576.84;;;15.19;100.00
53868;BME280;41577;47.470;19.080;2023-05-20T00:27:41;100583.25;;;15.18;100.00
53868;BME280;41577;47.470;19.080;2023-05-20T00:27:54;100574.16;;;15.19;100.00
53868;BME280;41577;47.470;19.080;2023-05-20T00:28:05;100583.88;;;15.20;100.00
53868;BME280;41577;47.470;19.080;2023-05-20T00:28:18;100582.22;;;15.19;100.00
53868;BME280;41577;47.470;19.080;2023-05-20T00:28:29;100583.88;;;15.20;100.00
53868;BME280;41577;47.470;19.080;2023-05-20T00:28:41;100576.84;;;15.19;100.00
53868;BME280;41577;47.470;19.080;2023-05-20T00:28:53;100576.84;;;15.19;100.00
53868;BME280;41577;47.470;19.080;2023-05-20T00:29:05;100584.69;;;15.21;100.00
53868;BME280;41577;47.470;19.080;2023-05-20T00:29:16;100579.31;;;15.21;100.00
53868;BME280;41577;47.470;19.080;2023-05-20T00:29:28;100575.78;;;15.20;100.00
53868;BME280;41577;47.470;19.080;2023-05-20T00:29:41;100577.66;;;15.20;100.00
53868;BME280;41577;47.470;19.080;2023-05-20T00:29:53;100576.84;;;15.19;100.00
53868;BME280;41577;47.470;19.080;2023-05-20T00:30:06;100579.53;;;15.19;100.00
53868;BME280;41577;47.470;19.080;2023-05-20T00:30:18;100574.97;;;15.20;100.00
53868;BME280;41577;47.470;19.080;2023-05-20T00:30:29;100580.34;;;15.20;100.00
53868;BME280;41577;47.470;19.080;2023-05-20T00:30:41;100573.31;;;15.19;100.00
53868;BME280;41577;47.470;19.080;2023-05-20T00:30:53;100580.34;;;15.20;100.00
53868;BME280;41577;47.470;19.080;2023-05-20T00:31:05;100580.56;;;15.18;100.00
53868;BME280;41577;47.470;19.080;2023-05-20T00:31:17;100577.88;;;15.18;100.00
53868;BME280;41577;47.470;19.080;2023-05-20T00:31:28;100576.00;;;15.19;100.00
53868;BME280;41577;47.470;19.080;2023-05-20T00:31:40;100580.56;;;15.18;100.00
53868;BME280;41577;47.470;19.080;2023-05-20T00:31:52;100577.06;;;15.18;100.00
53868;BME280;41577;47.470;19.080;2023-05-20T00:32:04;100576.22;;;15.17;100.00
53868;BME280;41577;47.470;19.080;2023-05-20T00:32:16;100577.06;;;15.18;100.00
53868;BME280;41577;47.470;19.080;2023-05-20T00:32:28;100582.44;;;15.18;100.00
53868;BME280;41577;47.470;19.080;2023-05-20T00:32:41;100570.84;;;15.17;100.00
53868;BME280;41577;47.470;19.080;2023-05-20T00:32:54;100579.75;;;15.18;100.00
53868;BME280;41577;47.470;19.080;2023-05-20T00:33:06;100577.25;;;15.16;100.00
53868;BME280;41577;47.470;19.080;2023-05-20T00:33:17;100570.22;;;15.15;100.00
53868;BME280;41577;47.470;19.080;2023-05-20T00:33:29;100580.78;;;15.17;100.00
53868;BME280;41577;47.470;19.080;2023-05-20T00:33:41;100575.41;;;15.17;100.00
53868;BME280;41577;47.470;19.080;2023-05-20T00:33:53;100578.91;;;15.17;100.00
53868;BME280;41577;47.470;19.080;2023-05-20T00:34:05;100574.56;;;15.16;100.00
53868;BME280;41577;47.470;19.080;2023-05-20T00:34:17;100571.88;;;15.16;100.00
53868;BME280;41577;47.470;19.080;2023-05-20T00:34:28;100580.78;;;15.17;100.00
53868;BME280;41577;47.470;19.080;2023-05-20T00:34:42;100574.56;;;15.16;100.00
53868;BME280;41577;47.470;19.080;2023-05-20T00:34:57;100576.22;;;15.17;100.00
53868;BME280;41577;47.470;19.080;2023-05-20T00:35:09;100576.44;;;15.16;100.00
53868;BME280;41577;47.470;19.080;2023-05-20T00:35:21;100576.44;;;15.16;100.00
53868;BME280;41577;47.470;19.080;2023-05-20T00:35:33;100577.25;;;15.16;100.00
53868;BME280;41577;47.470;19.080;2023-05-20T00:35:45;100579.13;;;15.16;100.00
53868;BME280;41577;47.470;19.080;2023-05-20T00:35:57;100577.25;;;15.16;100.00
53868;BME280;41577;47.470;19.080;2023-05-20T00:36:08;100576.44;;;15.16;100.00
53868;BME280;41577;47.470;19.080;2023-05-20T00:36:20;100579.94;;;15.16;100.00
53868;BME280;41577;47.470;19.080;2023-05-20T00:36:32;100575.63;;;15.15;100.00
53868;BME280;41577;47.470;19.080;2023-05-20T00:36:44;100573.75;;;15.16;100.00
53868;BME280;41577;47.470;19.080;2023-05-20T00:36:56;100575.63;;;15.15;100.00
53868;BME280;41577;47.470;19.080;2023-05-20T00:37:08;100571.88;;;15.16;100.00
53868;BME280;41577;47.470;19.080;2023-05-20T00:37:19;100572.91;;;15.15;100.00
53868;BME280;41577;47.470;19.080;2023-05-20T00:37:31;100582.88;;;15.15;100.00
53868;BME280;41577;47.470;19.080;2023-05-20T00:37:43;100579.94;;;15.16;100.00
53868;BME280;41577;47.470;19.080;2023-05-20T00:37:56;100575.63;;;15.15;100.00
53868;BME280;41577;47.470;19.080;2023-05-20T00:38:08;100583.69;;;15.15;100.00
53868;BME280;41577;47.470;19.080;2023-05-20T00:38:20;100579.13;;;15.16;100.00
53868;BME280;41577;47.470;19.080;2023-05-20T00:38:32;100577.25;;;15.16;100.00
53868;BME280;41577;47.470;19.080;2023-05-20T00:38:44;100581.00;;;15.15;100.00
53868;BME280;41577;47.470;19.080;2023-05-20T00:38:56;100577.69;;;15.13;100.00
53868;BME280;41577;47.470;19.080;2023-05-20T00:39:08;100577.47;;;15.15;100.00
53868;BME280;41577;47.470;19.080;2023-05-20T00:39:19;100576.63;;;15.14;100.00
53868;BME280;41577;47.470;19.080;2023-05-20T00:39:31;100581.00;;;15.15;100.00
53868;BME280;41577;47.470;19.080;2023-05-20T00:39:43;100581.00;;;15.15;100.00
53868;BME280;41577;47.470;19.080;2023-05-20T00:39:55;100583.69;;;15.15;100.00
53868;BME280;41577;47.470;19.080;2023-05-20T00:40:07;100581.00;;;15.15;100.00
53868;BME280;41577;47.470;19.080;2023-05-20T00:40:19;100576.63;;;15.14;100.00
53868;BME280;41577;47.470;19.080;2023-05-20T00:40:31;100576.63;;;15.14;100.00
53868;BME280;41577;47.470;19.080;2023-05-20T00:40:42;100581.00;;;15.15;100.00
53868;BME280;41577;47.470;19.080;2023-05-20T00:40:54;100578.31;;;15.15;100.00
53868;BME280;41577;47.470;19.080;2023-05-20T00:41:06;100581.19;;;15.14;100.00
53868;BME280;41577;47.470;19.080;2023-05-20T00:41:18;100587.19;;;15.16;100.00
53868;BME280;41577;47.470;19.080;2023-05-20T00:41:30;100581.81;;;15.16;100.00
53868;BME280;41577;47.470;19.080;2023-05-20T00:41:42;100580.19;;;15.15;100.00
53868;BME280;41577;47.470;19.080;2023-05-20T00:41:54;100584.69;;;15.14;100.00
53868;BME280;41577;47.470;19.080;2023-05-20T00:42:06;100582.88;;;15.15;100.00
53868;BME280;41577;47.470;19.080;2023-05-20T00:42:21;100581.19;;;15.14;100.00
53868;BME280;41577;47.470;19.080;2023-05-20T00:42:34;100583.88;;;15.14;100.00
53868;BME280;41577;47.470;19.080;2023-05-20T00:42:45;100579.56;;;15.13;100.00
53868;BME280;41577;47.470;19.080;2023-05-20T00:42:57;100583.50;;;15.10;100.00
53868;BME280;41577;47.470;19.080;2023-05-20T00:43:09;100583.06;;;15.13;100.00
53868;BME280;41577;47.470;19.080;2023-05-20T00:43:21;100584.69;;;15.14;100.00
53868;BME280;41577;47.470;19.080;2023-05-20T00:43:32;100588.25;;;15.15;100.00
53868;BME280;41577;47.470;19.080;2023-05-20T00:43:44;100584.69;;;15.14;100.00
53868;BME280;41577;47.470;19.080;2023-05-20T00:43:56;100582.88;;;15.15;100.00
53868;BME280;41577;47.470;19.080;2023-05-20T00:44:08;100581.00;;;15.15;100.00
53868;BME280;41577;47.470;19.080;2023-05-20T00:44:20;100583.47;;;15.17;100.00
53868;BME280;41577;47.470;19.080;2023-05-20T00:44:31;100583.69;;;15.15;100.00
53868;BME280;41577;47.470;19.080;2023-05-20T00:44:43;100587.19;;;15.16;100.00
53868;BME280;41577;47.470;19.080;2023-05-20T00:44:55;100587.00;;;15.17;100.00
53868;BME280;41577;47.470;19.080;2023-05-20T00:45:08;100585.31;;;15.16;100.00
53868;BME280;41577;47.470;19.080;2023-05-20T00:45:20;100585.31;;;15.16;100.00
53868;BME280;41577;47.470;19.080;2023-05-20T00:45:32;100580.78;;;15.17;100.00
53868;BME280;41577;47.470;19.080;2023-05-20T00:45:44;100587.19;;;15.16;100.00
53868;BME280;41577;47.470;19.080;2023-05-20T00:45:56;100585.31;;;15.16;100.00
53868;BME280;41577;47.470;19.080;2023-05-20T00:46:09;100585.31;;;15.16;100.00
53868;BME280;41577;47.470;19.080;2023-05-20T00:46:21;100588.88;;;15.17;100.00
53868;BME280;41577;47.470;19.080;2023-05-20T00:46:34;100582.63;;;15.16;100.00
53868;BME280;41577;47.470;19.080;2023-05-20T00:46:46;100578.91;;;15.17;100.00
53868;BME280;41577;47.470;19.080;2023-05-20T00:46:58;100583.47;;;15.17;100.00
53868;BME280;41577;47.470;19.080;2023-05-20T00:47:10;100586.16;;;15.17;100.00
53868;BME280;41577;47.470;19.080;2023-05-20T00:47:26;100586.16;;;15.17;100.00
53868;BME280;41577;47.470;19.080;2023-05-20T00:47:38;100589.69;;;15.17;100.00
53868;BME280;41577;47.470;19.080;2023-05-20T00:47:51;100588.88;;;15.17;100.00
53868;BME280;41577;47.470;19.080;2023-05-20T00:48:03;100583.47;;;15.17;100.00
53868;BME280;41577;47.470;19.080;2023-05-20T00:48:16;100586.16;;;15.17;100.00
53868;BME280;41577;47.470;19.080;2023-05-20T00:48:33;100581.81;;;15.16;100.00
53868;BME280;41577;47.470;19.080;2023-05-20T00:48:49;100583.47;;;15.17;100.00
53868;BME280;41577;47.470;19.080;2023-05-20T00:49:01;100587.19;;;15.16;100.00
53868;BME280;41577;47.470;19.080;2023-05-20T00:49:13;100581.00;;;15.15;100.00
53868;BME280;41577;47.470;19.080;2023-05-20T00:49:25;100586.38;;;15.15;100.00
53868;BME280;41577;47.470;19.080;2023-05-20T00:49:37;100577.47;;;15.15;100.00
53868;BME280;41577;47.470;19.080;2023-05-20T00:49:50;100584.69;;;15.14;100.00
53868;BME280;41577;47.470;19.080;2023-05-20T00:50:03;100590.94;;;15.15;100.00
53868;BME280;41577;47.470;19.080;2023-05-20T00:50:15;100584.69;;;15.14;100.00
53868;BME280;41577;47.470;19.080;2023-05-20T00:50:28;100581.19;;;15.14;100.00
53868;BME280;41577;47.470;19.080;2023-05-20T00:50:40;100585.56;;;15.15;100.00
53868;BME280;41577;47.470;19.080;2023-05-20T00:50:51;100582.00;;;15.14;100.00
53868;BME280;41577;47.470;19.080;2023-05-20T00:51:03;100582.88;;;15.15;100.00
53868;BME280;41577;47.470;19.080;2023-05-20T00:51:15;100582.88;;;15.15;100.00
53868;BME280;41577;47.470;19.080;2023-05-20T00:51:27;100584.69;;;15.14;100.00
53868;BME280;41577;47.470;19.080;2023-05-20T00:51:39;100582.88;;;15.15;100.00
53868;BME280;41577;47.470;19.080;2023-05-20T00:51:51;100581.00;;;15.15;100.00
53868;BME280;41577;47.470;19.080;2023-05-20T00:52:03;100584.69;;;15.14;100.00
53868;BME280;41577;47.470;19.080;2023-05-20T00:52:16;100583.88;;;15.14;100.00
53868;BME280;41577;47.470;19.080;2023-05-20T00:52:30;100579.31;;;15.14;100.00
53868;BME280;41577;47.470;19.080;2023-05-20T00:52:42;100577.69;;;15.13;100.00
53868;BME280;41577;47.470;19.080;2023-05-20T00:52:55;100588.44;;;15.13;100.00
53868;BME280;41577;47.470;19.080;2023-05-20T00:53:08;100584.13;;;15.12;100.00
53868;BME280;41577;47.470;19.080;2023-05-20T00:53:20;100588.44;;;15.13;100.00
53868;BME280;41577;47.470;19.080;2023-05-20T00:53:33;100584.13;;;15.12;100.00
53868;BME280;41577;47.470;19.080;2023-05-20T00:53:46;100577.69;;;15.13;100.00
53868;BME280;41577;47.470;19.080;2023-05-20T00:53:57;100581.44;;;15.12;100.00
53868;BME280;41577;47.470;19.080;2023-05-20T00:54:09;100583.25;;;15.12;100.00
53868;BME280;41577;47.470;19.080;2023-05-20T00:54:22;100585.75;;;15.13;100.00
53868;BME280;41577;47.470;19.080;2023-05-20T00:54:34;100579.75;;;15.11;100.00
53868;BME280;41577;47.470;19.080;2023-05-20T00:54:46;100581.44;;;15.12;100.00
53868;BME280;41577;47.470;19.080;2023-05-20T00:54:58;100578.75;;;15.12;100.00
53868;BME280;41577;47.470;19.080;2023-05-20T00:55:10;100574.38;;;15.11;100.00
53868;BME280;41577;47.470;19.080;2023-05-20T00:55:23;100581.44;;;15.12;100.00
53868;BME280;41577;47.470;19.080;2023-05-20T00:55:35;100588.44;;;15.13;100.00
53868;BME280;41577;47.470;19.080;2023-05-20T00:55:47;100580.56;;;15.12;100.00
53868;BME280;41577;47.470;19.080;2023-05-20T00:55:59;100573.34;;;15.12;100.00
53868;BME280;41577;47.470;19.080;2023-05-20T00:56:11;100574.19;;;15.13;100.00
53868;BME280;41577;47.470;19.080;2023-05-20T00:56:24;100577.69;;;15.13;100.00
53868;BME280;41577;47.470;19.080;2023-05-20T00:56:36;100584.94;;;15.13;100.00
53868;BME280;41577;47.470;19.080;2023-05-20T00:56:48;100578.75;;;15.12;100.00
53868;BME280;41577;47.470;19.080;2023-05-20T00:57:00;100584.69;;;15.14;100.00
53868;BME280;41577;47.470;19.080;2023-05-20T00:57:12;100577.69;;;15.13;100.00
53868;BME280;41577;47.470;19.080;2023-05-20T00:57:24;100579.75;;;15.11;100.00
53868;BME280;41577;47.470;19.080;2023-05-20T00:57:36;100577.69;;;15.13;100.00
53868;BME280;41577;47.470;19.080;2023-05-20T00:57:49;100577.88;;;15.12;100.00
53868;BME280;41577;47.470;19.080;2023-05-20T00:58:01;100581.44;;;15.12;100.00
53868;BME280;41577;47.470;19.080;2023-05-20T00:58:13;100578.75;;;15.12;100.00
53868;BME280;41577;47.470;19.080;2023-05-20T00:58:25;100572.50;;;15.12;100.00
53868;BME280;41577;47.470;19.080;2023-05-20T00:58:37;100578.75;;;15.12;100.00
53868;BME280;41577;47.470;19.080;2023-05-20T00:58:49;100578.75;;;15.12;100.00
53868;BME280;41577;47.470;19.080;2023-05-20T00:59:01;100585.97;;;15.12;100.00
53868;BME280;41577;47.470;19.080;2023-05-20T00:59:13;100578.13;;;15.10;100.00
53868;BME280;41577;47.470;19.080;2023-05-20T00:59:26;100571.31;;;15.08;100.00
53868;BME280;41577;47.470;19.080;2023-05-20T00:59:39;100578.94;;;15.11;100.00
53868;BME280;41577;47.470;19.080;2023-05-20T00:59:54;100581.00;;;15.09;100.00
53868;BME280;41577;47.470;19.080;2023-05-20T01:00:07;100583.50;;;15.10;100.00
53868;BME280;41577;47.470;19.080;2023-05-20T01:00:19;100579.97;;;15.10;100.00
53868;BME280;41577;47.470;19.080;2023-05-20T01:00:31;100579.97;;;15.10;100.00
53868;BME280;41577;47.470;19.080;2023-05-20T01:00:43;100587.81;;;15.11;100.00
53868;BME280;41577;47.470;19.080;2023-05-20T01:00:55;100579.13;;;15.09;100.00
53868;BME280;41577;47.470;19.080;2023-05-20T01:01:07;100579.97;;;15.10;100.00
53868;BME280;41577;47.470;19.080;2023-05-20T01:01:19;100582.66;;;15.10;100.00
53868;BME280;41577;47.470;19.080;2023-05-20T01:01:31;100580.81;;;15.10;100.00